Korinthos, Greece
Current Conditions -  °F | °C
As of 3:50 PM on Thursday 30 Oct 2014 (Local Time) from LGEL Reporting Station
Broken Clouds Broken Clouds  
Wind Chill: 66°   Ceiling: 3000
Heat Index: 66°   Visibility: 6mi
Dew Point: 48°   Wind: 7mph
Humidity: 52%   Direction: 10°N
Pressure: 30.03"   Gusts: NA
Location:  37.94°N, 22.93°E
Report Text: LGEL 301250Z 01006KT 9999 FEW020 BKN030 19/09 Q1017
Loading
Personal Weather Stations






























Interactive Weather Map
Tropical Storm Tracking
New forecast layout! Learn more

10-Day Weather Forecast

Advertisements
Track Severe Weather on mobile